createdAt,value
2018-02-13T00:01:47.326Z,-2.70
2018-02-13T00:04:14.937Z,-2.70
2018-02-13T00:06:42.555Z,-2.70
2018-02-13T00:09:10.128Z,-2.80
2018-02-13T00:11:37.771Z,-2.80
2018-02-13T00:14:05.367Z,-2.90
2018-02-13T00:16:33.738Z,-3.00
2018-02-13T00:19:02.145Z,-3.10
2018-02-13T00:21:29.816Z,-3.10
2018-02-13T00:23:57.495Z,-3.10
2018-02-13T00:26:25.126Z,-3.10
2018-02-13T00:28:52.726Z,-3.20
2018-02-13T00:31:20.313Z,-3.30
2018-02-13T00:33:47.942Z,-3.30
2018-02-13T00:36:15.534Z,-3.40
2018-02-13T00:38:43.154Z,-3.40
2018-02-13T00:41:10.750Z,-3.50
2018-02-13T00:43:38.381Z,-3.50
2018-02-13T00:46:06.031Z,-3.60
2018-02-13T00:48:33.627Z,-3.70
2018-02-13T00:51:01.215Z,-3.80
2018-02-13T00:53:29.614Z,-4.00
2018-02-13T00:55:57.187Z,-4.00
2018-02-13T00:58:24.843Z,-4.00
2018-02-13T01:00:52.440Z,-4.00
2018-02-13T01:03:20.040Z,-4.00
2018-02-13T01:05:48.406Z,-3.90
2018-02-13T01:08:16.800Z,-3.90
2018-02-13T01:10:45.169Z,-4.00
2018-02-13T01:13:13.506Z,-3.80
2018-02-13T01:15:41.158Z,-3.90
2018-02-13T01:18:08.757Z,-3.80
2018-02-13T01:20:36.386Z,-3.80
2018-02-13T01:23:03.994Z,-3.80
2018-02-13T01:25:31.632Z,-3.80
2018-02-13T01:27:59.246Z,-3.80
2018-02-13T01:30:26.823Z,-3.80
2018-02-13T01:32:54.411Z,-3.70
2018-02-13T01:35:22.050Z,-3.60
2018-02-13T01:37:49.634Z,-3.50
2018-02-13T01:40:17.270Z,-3.40
2018-02-13T01:42:44.874Z,-3.50
2018-02-13T01:45:13.246Z,-3.30
2018-02-13T01:47:41.591Z,-3.30
2018-02-13T01:50:25.911Z,-3.30
2018-02-13T01:52:53.512Z,-3.20
2018-02-13T01:55:21.086Z,-3.10
2018-02-13T01:57:48.698Z,-3.00
2018-02-13T02:00:17.026Z,-3.00
2018-02-13T02:02:45.371Z,-3.00
2018-02-13T02:05:12.964Z,-3.00
2018-02-13T02:07:40.568Z,-3.00
2018-02-13T02:10:08.136Z,-3.00
2018-02-13T02:12:35.734Z,-3.00
2018-02-13T02:15:03.311Z,-3.00
2018-02-13T02:17:31.726Z,-3.00
2018-02-13T02:19:59.354Z,-3.00
2018-02-13T02:22:27.728Z,-3.00
2018-02-13T02:24:55.302Z,-3.00
2018-02-13T02:27:22.913Z,-3.00
2018-02-13T02:29:50.516Z,-3.10
2018-02-13T02:32:18.107Z,-3.10
2018-02-13T02:34:45.769Z,-3.10
2018-02-13T02:37:13.353Z,-3.10
2018-02-13T02:39:40.983Z,-3.10
2018-02-13T02:42:08.586Z,-3.10
2018-02-13T02:44:36.146Z,-3.10
2018-02-13T02:47:03.759Z,-3.10
2018-02-13T02:49:31.358Z,-3.10
2018-02-13T02:51:59.000Z,-3.10
2018-02-13T02:54:26.622Z,-3.10
2018-02-13T02:56:54.985Z,-3.10
2018-02-13T03:02:16.807Z,-3.10
2018-02-13T03:04:44.376Z,-3.10
2018-02-13T03:07:11.962Z,-3.10
2018-02-13T03:09:40.306Z,-3.20
2018-02-13T03:12:07.903Z,-3.20
2018-02-13T03:14:36.266Z,-3.30
2018-02-13T03:17:04.672Z,-3.30
2018-02-13T03:19:32.253Z,-3.30
2018-02-13T03:21:59.883Z,-3.40
2018-02-13T03:24:27.471Z,-3.40
2018-02-13T03:26:55.045Z,-3.40
2018-02-13T03:29:22.687Z,-3.50
2018-02-13T03:31:50.247Z,-3.40
2018-02-13T03:34:17.842Z,-3.40
2018-02-13T03:36:45.430Z,-3.40
2018-02-13T03:39:13.833Z,-3.40
2018-02-13T03:41:41.434Z,-3.40
2018-02-13T03:44:09.055Z,-3.40
2018-02-13T03:46:36.634Z,-3.30
2018-02-13T03:49:04.258Z,-3.40
2018-02-13T03:51:32.630Z,-3.40
2018-02-13T03:54:01.051Z,-3.40
2018-02-13T03:56:28.658Z,-3.40
2018-02-13T03:58:56.286Z,-3.50
2018-02-13T04:01:23.841Z,-3.50
2018-02-13T04:03:51.463Z,-3.60
2018-02-13T04:06:19.097Z,-3.70
2018-02-13T04:08:46.705Z,-3.70
2018-02-13T04:11:14.365Z,-3.80
2018-02-13T04:13:41.950Z,-3.80
2018-02-13T04:16:09.598Z,-3.80
2018-02-13T04:18:37.188Z,-3.90
2018-02-13T04:21:04.799Z,-3.90
2018-02-13T04:23:32.354Z,-4.00
2018-02-13T04:25:59.955Z,-4.10
2018-02-13T04:28:27.522Z,-4.20
2018-02-13T04:30:55.164Z,-4.40
2018-02-13T04:33:22.795Z,-4.50
2018-02-13T04:35:50.382Z,-4.60
2018-02-13T04:38:17.964Z,-4.70
2018-02-13T04:40:45.585Z,-4.80
2018-02-13T04:43:13.211Z,-5.00
2018-02-13T04:45:40.843Z,-5.10
2018-02-13T04:48:08.430Z,-5.30
2018-02-13T04:50:36.010Z,-5.40
2018-02-13T04:53:03.626Z,-5.50
2018-02-13T04:55:31.252Z,-5.60
2018-02-13T04:57:58.884Z,-5.60
2018-02-13T05:00:27.239Z,-5.70
2018-02-13T05:02:54.842Z,-5.70
2018-02-13T05:05:22.463Z,-5.70
2018-02-13T05:07:50.083Z,-5.80
2018-02-13T05:10:17.730Z,-5.90
2018-02-13T05:12:45.321Z,-6.00
2018-02-13T05:15:12.935Z,-6.10
2018-02-13T05:17:41.331Z,-6.10
2018-02-13T05:20:08.953Z,-6.10
2018-02-13T05:22:36.546Z,-6.10
2018-02-13T05:25:04.098Z,-6.10
2018-02-13T05:27:31.724Z,-6.10
2018-02-13T05:29:59.956Z,-6.20
2018-02-13T05:32:27.590Z,-6.20
2018-02-13T05:34:55.183Z,-6.30
2018-02-13T05:37:22.790Z,-6.20
2018-02-13T05:39:51.161Z,-6.30
2018-02-13T05:42:18.773Z,-6.40
2018-02-13T05:44:46.367Z,-6.30
2018-02-13T05:47:13.970Z,-6.30
2018-02-13T05:49:42.342Z,-6.40
2018-02-13T05:52:10.686Z,-6.50
2018-02-13T05:54:38.296Z,-6.50
2018-02-13T05:57:05.886Z,-6.50
2018-02-13T05:59:33.487Z,-6.60
2018-02-13T06:02:01.058Z,-6.60
2018-02-13T06:04:29.421Z,-6.70
2018-02-13T06:06:57.789Z,-6.70
2018-02-13T06:09:25.412Z,-6.70
2018-02-13T06:11:53.688Z,-6.70
2018-02-13T06:14:21.321Z,-6.70
2018-02-13T06:16:48.937Z,-6.80
2018-02-13T06:19:16.570Z,-6.80
2018-02-13T06:21:44.162Z,-6.90
2018-02-13T06:24:11.746Z,-6.80
2018-02-13T06:26:40.109Z,-6.80
2018-02-13T06:29:07.726Z,-6.80
2018-02-13T06:31:35.344Z,-6.80
2018-02-13T06:34:03.729Z,-6.80
2018-02-13T06:36:32.102Z,-6.80
2018-02-13T06:39:00.533Z,-6.80
2018-02-13T06:41:28.154Z,-6.80
2018-02-13T06:43:56.566Z,-6.90
2018-02-13T06:46:24.159Z,-6.90
2018-02-13T06:48:51.730Z,-6.80
2018-02-13T06:51:19.363Z,-6.90
2018-02-13T06:53:47.011Z,-6.80
2018-02-13T06:56:14.622Z,-6.70
2018-02-13T06:58:42.986Z,-6.60
2018-02-13T07:01:10.610Z,-6.60
2018-02-13T07:03:38.207Z,-6.50
2018-02-13T07:06:05.794Z,-6.50
2018-02-13T07:08:34.171Z,-6.40
2018-02-13T07:11:02.538Z,-6.20
2018-02-13T07:13:30.906Z,-6.20
2018-02-13T07:15:58.507Z,-6.20
2018-02-13T07:18:26.127Z,-6.10
2018-02-13T07:20:53.708Z,-6.10
2018-02-13T07:23:22.074Z,-5.90
2018-02-13T07:25:50.452Z,-5.10
2018-02-13T07:28:18.835Z,-4.20
2018-02-13T07:30:47.210Z,-3.40
2018-02-13T07:33:14.844Z,-3.40
2018-02-13T07:35:42.446Z,-3.10
2018-02-13T07:38:10.103Z,-3.10
2018-02-13T07:40:38.442Z,-3.10
2018-02-13T07:43:06.079Z,-3.20
2018-02-13T07:45:33.690Z,-2.70
2018-02-13T07:48:01.994Z,-2.00
2018-02-13T07:50:29.567Z,-1.70
2018-02-13T07:52:57.165Z,-1.20
2018-02-13T07:55:24.757Z,-0.90
2018-02-13T07:57:53.125Z,-1.60
2018-02-13T08:00:21.474Z,-2.10
2018-02-13T08:02:49.080Z,-2.20
2018-02-13T08:05:16.677Z,-2.50
2018-02-13T08:07:44.308Z,-2.90
2018-02-13T08:10:11.866Z,-3.00
2018-02-13T08:12:39.441Z,-3.00
2018-02-13T08:15:07.109Z,-3.20
2018-02-13T08:17:35.430Z,-3.10
2018-02-13T08:20:03.042Z,-3.10
2018-02-13T08:22:30.606Z,-2.90
2018-02-13T08:24:58.229Z,-2.80
2018-02-13T08:27:25.866Z,-2.40
2018-02-13T08:29:53.438Z,-0.90
2018-02-13T08:32:21.790Z,2.50
2018-02-13T08:34:49.359Z,2.50
2018-02-13T08:37:16.919Z,3.80
2018-02-13T08:39:44.537Z,4.70
2018-02-13T08:42:12.157Z,5.40
2018-02-13T08:44:39.782Z,6.10
2018-02-13T08:47:07.334Z,6.90
2018-02-13T08:49:34.925Z,7.00
2018-02-13T08:52:02.530Z,7.00
2018-02-13T08:54:30.110Z,7.80
2018-02-13T08:56:57.667Z,8.90
2018-02-13T08:59:25.265Z,10.10
2018-02-13T09:01:53.561Z,11.30
2018-02-13T09:04:21.921Z,13.80
2018-02-13T09:06:49.539Z,13.70
2018-02-13T09:09:17.828Z,15.50
2018-02-13T09:11:45.384Z,15.40
2018-02-13T09:14:12.992Z,16.10
2018-02-13T09:16:40.580Z,17.00
2018-02-13T09:19:08.160Z,17.60
2018-02-13T09:21:35.750Z,17.50
2018-02-13T09:24:03.315Z,17.30
2018-02-13T09:26:30.934Z,17.80
2018-02-13T09:28:58.473Z,18.20
2018-02-13T09:31:26.068Z,17.90
2018-02-13T09:33:53.691Z,17.80
2018-02-13T09:36:21.316Z,17.00
2018-02-13T09:38:48.908Z,17.10
2018-02-13T09:41:17.304Z,16.10
2018-02-13T09:43:44.948Z,16.10
2018-02-13T09:46:13.322Z,15.50
2018-02-13T09:48:40.878Z,15.50
2018-02-13T09:51:09.190Z,16.60
2018-02-13T09:53:36.834Z,16.60
2018-02-13T09:56:04.386Z,16.60
2018-02-13T09:58:31.990Z,14.90
2018-02-13T10:00:59.562Z,14.20
2018-02-13T10:03:27.181Z,11.30
2018-02-13T10:05:54.790Z,12.10
2018-02-13T10:08:22.403Z,12.90
2018-02-13T10:10:50.202Z,14.70
2018-02-13T10:13:17.740Z,15.60
2018-02-13T10:15:45.367Z,15.40
2018-02-13T10:18:13.606Z,14.70
2018-02-13T10:20:41.199Z,14.20
2018-02-13T10:23:08.798Z,13.90
2018-02-13T10:25:36.407Z,13.00
2018-02-13T10:28:04.719Z,12.90
2018-02-13T10:30:32.309Z,12.80
2018-02-13T10:32:59.874Z,12.40
2018-02-13T10:35:27.466Z,12.10
2018-02-13T10:37:55.808Z,11.20
2018-02-13T10:40:23.444Z,11.20
2018-02-13T10:42:51.049Z,11.20
2018-02-13T10:45:18.622Z,11.60
2018-02-13T10:47:47.013Z,13.10
2018-02-13T10:50:14.570Z,13.00
2018-02-13T10:52:42.889Z,9.40
2018-02-13T10:55:10.471Z,9.30
2018-02-13T10:57:38.116Z,8.00
2018-02-13T11:00:05.668Z,9.00
2018-02-13T11:02:33.603Z,10.60
2018-02-13T11:05:01.192Z,11.60
2018-02-13T11:07:28.779Z,12.20
2018-02-13T11:09:56.414Z,13.00
2018-02-13T11:12:23.966Z,12.80
2018-02-13T11:14:52.361Z,11.00
2018-02-13T11:17:19.942Z,10.90
2018-02-13T11:19:47.530Z,8.80
2018-02-13T11:22:15.085Z,9.30
2018-02-13T11:24:43.463Z,8.60
2018-02-13T11:27:11.839Z,6.60
2018-02-13T11:29:40.164Z,5.00
2018-02-13T11:32:07.769Z,5.00
2018-02-13T11:34:35.367Z,4.40
2018-02-13T11:37:02.998Z,4.00
2018-02-13T11:39:31.361Z,2.70
2018-02-13T11:41:58.974Z,2.60
2018-02-13T11:44:26.592Z,2.20
2018-02-13T11:46:54.165Z,2.00
2018-02-13T11:49:22.521Z,2.20
2018-02-13T11:51:50.120Z,2.20
2018-02-13T11:54:17.715Z,2.50
2018-02-13T11:56:45.345Z,2.60
2018-02-13T11:59:12.964Z,2.50
2018-02-13T12:01:40.533Z,2.40
2018-02-13T12:04:08.890Z,2.10
2018-02-13T12:06:36.486Z,2.00
2018-02-13T12:09:04.088Z,2.30
2018-02-13T12:11:31.669Z,2.40
2018-02-13T12:13:59.297Z,2.50
2018-02-13T12:16:26.851Z,2.50
2018-02-13T12:18:54.474Z,2.50
2018-02-13T12:21:22.867Z,2.80
2018-02-13T12:23:50.473Z,2.80
2018-02-13T12:26:18.091Z,2.60
2018-02-13T12:28:45.713Z,2.50
2018-02-13T12:31:13.283Z,2.70
2018-02-13T12:33:40.906Z,2.60
2018-02-13T12:36:08.521Z,2.40
2018-02-13T12:38:36.100Z,2.30
2018-02-13T12:41:03.700Z,2.40
2018-02-13T12:43:31.300Z,2.60
2018-02-13T12:45:59.637Z,2.60
2018-02-13T12:48:27.194Z,2.60
2018-02-13T12:50:54.788Z,2.70
2018-02-13T12:53:23.148Z,2.80
2018-02-13T12:55:50.718Z,2.80
2018-02-13T12:58:18.296Z,2.80
2018-02-13T13:00:45.935Z,2.80
2018-02-13T13:03:13.502Z,2.90
2018-02-13T13:05:41.088Z,2.80
2018-02-13T13:08:08.735Z,2.70
2018-02-13T13:10:37.062Z,2.80
2018-02-13T13:13:04.654Z,2.80
2018-02-13T13:15:32.247Z,2.90
2018-02-13T13:17:59.828Z,2.90
2018-02-13T13:20:27.430Z,2.90
2018-02-13T13:22:55.033Z,2.90
2018-02-13T13:25:22.611Z,2.90
2018-02-13T13:27:50.221Z,2.90
2018-02-13T13:30:17.807Z,2.90
2018-02-13T13:32:45.354Z,2.80
2018-02-13T13:35:13.731Z,2.80
2018-02-13T13:37:41.325Z,2.80
2018-02-13T13:40:08.996Z,2.90
2018-02-13T13:42:36.614Z,2.80
2018-02-13T13:45:04.958Z,2.80
2018-02-13T13:47:32.577Z,2.80
2018-02-13T13:50:00.127Z,2.70
2018-02-13T13:52:27.730Z,2.80
2018-02-13T13:54:55.363Z,2.80
2018-02-13T13:57:22.959Z,2.80
2018-02-13T13:59:50.542Z,2.80
2018-02-13T14:02:19.807Z,2.70
2018-02-13T14:04:50.872Z,2.80
2018-02-13T14:07:18.468Z,2.80
2018-02-13T14:09:46.074Z,2.80
2018-02-13T14:12:13.667Z,2.70
2018-02-13T14:14:41.288Z,2.70
2018-02-13T14:17:08.866Z,2.60
2018-02-13T14:19:37.263Z,2.50
2018-02-13T14:22:05.631Z,2.50
2018-02-13T14:24:33.291Z,2.50
2018-02-13T14:27:00.862Z,2.50
2018-02-13T14:29:29.174Z,2.60
2018-02-13T14:31:56.784Z,2.60
2018-02-13T14:34:24.342Z,2.50
2018-02-13T14:36:51.918Z,2.50
2018-02-13T14:39:20.351Z,2.50
2018-02-13T14:41:47.936Z,2.50
2018-02-13T14:44:15.598Z,2.60
2018-02-13T14:46:43.155Z,2.60
2018-02-13T14:49:10.763Z,2.60
2018-02-13T14:51:38.335Z,2.60
2018-02-13T14:54:05.922Z,2.70
2018-02-13T14:56:33.507Z,2.80
2018-02-13T14:59:01.130Z,3.50
2018-02-13T15:01:28.690Z,4.50
2018-02-13T15:03:56.259Z,5.40
2018-02-13T15:06:23.849Z,5.90
2018-02-13T15:08:52.182Z,6.20
2018-02-13T15:11:19.792Z,6.20
2018-02-13T15:13:48.185Z,5.70
2018-02-13T15:16:15.801Z,5.70
2018-02-13T15:18:43.410Z,5.80
2018-02-13T15:21:11.020Z,5.60
2018-02-13T15:23:38.575Z,5.50
2018-02-13T15:26:06.174Z,5.50
2018-02-13T15:28:34.538Z,5.80
2018-02-13T15:31:02.162Z,5.80
2018-02-13T15:33:29.784Z,6.00
2018-02-13T15:35:57.404Z,5.20
2018-02-13T15:38:25.002Z,4.60
2018-02-13T15:40:54.837Z,3.40
2018-02-13T15:43:22.419Z,3.40
2018-02-13T15:45:50.027Z,3.30
2018-02-13T15:48:18.384Z,3.90
2018-02-13T15:50:45.980Z,3.90
2018-02-13T15:53:13.543Z,4.00
2018-02-13T15:55:41.123Z,4.20
2018-02-13T15:58:08.726Z,4.50
2018-02-13T16:00:36.314Z,4.00
2018-02-13T16:03:03.894Z,3.20
2018-02-13T16:05:31.448Z,2.50
2018-02-13T16:07:59.081Z,1.90
2018-02-13T16:10:28.367Z,1.00
2018-02-13T16:12:56.002Z,1.00
2018-02-13T16:15:23.580Z,0.80
2018-02-13T16:17:51.159Z,0.60
2018-02-13T16:20:19.526Z,0.10
2018-02-13T16:22:47.115Z,0.10
2018-02-13T16:25:14.699Z,-0.10
2018-02-13T16:27:42.310Z,-0.20
2018-02-13T16:30:09.891Z,-0.30
2018-02-13T16:32:41.655Z,-0.70
2018-02-13T16:35:11.267Z,-0.70
2018-02-13T16:37:42.016Z,-0.90
2018-02-13T16:40:09.607Z,-1.10
2018-02-13T16:42:37.225Z,-1.20
2018-02-13T16:45:04.791Z,-1.30
2018-02-13T16:47:32.376Z,-1.20
2018-02-13T16:49:59.991Z,-1.20
2018-02-13T16:52:33.309Z,-1.40
2018-02-13T16:55:00.912Z,-1.60
2018-02-13T16:59:08.888Z,-1.80
2018-02-13T17:18:15.549Z,-2.60
2018-02-13T17:20:43.084Z,-2.60
2018-02-13T17:23:11.407Z,-2.70
2018-02-13T17:25:39.014Z,-2.70
2018-02-13T17:28:06.607Z,-2.70
2018-02-13T17:30:34.232Z,-2.60
2018-02-13T17:33:01.811Z,-2.60
2018-02-13T17:35:29.478Z,-2.70
2018-02-13T17:37:57.080Z,-2.90
2018-02-13T17:40:24.672Z,-2.90
2018-02-13T17:42:52.259Z,-2.90
2018-02-13T17:45:19.887Z,-2.90
2018-02-13T17:47:47.497Z,-2.90
2018-02-13T17:50:15.118Z,-2.90
2018-02-13T17:52:44.651Z,-2.80
2018-02-13T17:55:12.291Z,-2.70
2018-02-13T17:57:39.879Z,-2.70
2018-02-13T18:00:07.471Z,-2.30
2018-02-13T18:02:35.044Z,-2.30
2018-02-13T18:05:02.630Z,-2.40
2018-02-13T18:07:30.279Z,-2.70
2018-02-13T18:09:57.850Z,-2.90
2018-02-13T18:12:25.483Z,-3.00
2018-02-13T18:14:53.104Z,-3.00
2018-02-13T18:17:20.702Z,-3.00
2018-02-13T18:19:48.312Z,-3.00
2018-02-13T18:22:15.900Z,-3.10
2018-02-13T18:24:43.493Z,-3.20
2018-02-13T18:27:11.193Z,-3.40
2018-02-13T18:29:38.792Z,-3.40
2018-02-13T18:32:06.396Z,-3.50
2018-02-13T18:34:33.970Z,-3.60
2018-02-13T18:37:02.326Z,-3.70
2018-02-13T18:39:29.925Z,-3.80
2018-02-13T18:41:57.573Z,-3.20
2018-02-13T18:44:25.227Z,-3.10
2018-02-13T18:46:53.618Z,-3.30
2018-02-13T18:49:21.214Z,-3.40
2018-02-13T18:51:48.793Z,-3.50
2018-02-13T18:54:16.365Z,-3.60
2018-02-13T18:56:43.951Z,-3.80
2018-02-13T18:59:12.298Z,-3.90
2018-02-13T19:01:39.934Z,-3.90
2018-02-13T19:04:07.576Z,-4.00
2018-02-13T19:06:35.215Z,-4.00
2018-02-13T19:09:02.897Z,-4.00
2018-02-13T19:11:30.500Z,-4.00
2018-02-13T19:13:58.103Z,-3.90
2018-02-13T19:16:25.715Z,-3.90
2018-02-13T19:18:53.370Z,-3.80
2018-02-13T19:21:21.026Z,-3.90
2018-02-13T19:23:48.646Z,-3.90
2018-02-13T19:26:16.259Z,-3.80
2018-02-13T19:28:43.872Z,-3.70
2018-02-13T19:31:11.539Z,-3.60
2018-02-13T19:33:39.150Z,-3.40
2018-02-13T19:36:06.755Z,-3.30
2018-02-13T19:38:34.399Z,-3.40
2018-02-13T19:41:02.009Z,-3.30
2018-02-13T19:43:29.612Z,-3.30
2018-02-13T19:45:58.006Z,-3.20
2018-02-13T19:48:25.708Z,-3.20
2018-02-13T19:50:53.342Z,-3.10
2018-02-13T19:53:20.982Z,-3.00
2018-02-13T19:55:49.372Z,-3.00
2018-02-13T19:58:16.969Z,-3.00
2018-02-13T20:00:44.580Z,-3.10
2018-02-13T20:03:12.169Z,-3.40
2018-02-13T20:05:53.226Z,-3.50
2018-02-13T20:08:20.842Z,-3.40
2018-02-13T20:10:48.441Z,-3.60
2018-02-13T20:13:16.836Z,-3.70
2018-02-13T20:15:44.421Z,-3.70
2018-02-13T20:18:12.055Z,-3.80
2018-02-13T20:20:39.675Z,-3.90
2018-02-13T20:23:07.317Z,-3.90
2018-02-13T20:25:34.955Z,-3.70
2018-02-13T20:28:02.586Z,-3.50
2018-02-13T20:30:30.192Z,-3.30
2018-02-13T20:32:57.807Z,-3.30
2018-02-13T20:35:25.451Z,-3.30
2018-02-13T20:37:53.832Z,-3.30
2018-02-13T20:40:22.200Z,-3.30
2018-02-13T20:42:49.809Z,-3.40
2018-02-13T20:45:17.429Z,-3.30
2018-02-13T20:47:45.844Z,-3.40
2018-02-13T20:50:13.399Z,-3.40
2018-02-13T20:52:40.979Z,-3.40
2018-02-13T20:55:08.580Z,-3.50
2018-02-13T20:57:36.176Z,-3.50
2018-02-13T21:00:18.785Z,-3.50
2018-02-13T21:02:46.399Z,-3.50
2018-02-13T21:05:14.002Z,-3.60
2018-02-13T21:07:41.600Z,-3.60
2018-02-13T21:10:09.215Z,-3.20
2018-02-13T21:12:37.536Z,-2.90
2018-02-13T21:15:05.143Z,-2.90
2018-02-13T21:17:33.492Z,-3.00
2018-02-13T21:20:01.123Z,-3.00
2018-02-13T21:22:28.777Z,-3.20
2018-02-13T21:24:56.372Z,-3.50
2018-02-13T21:27:23.980Z,-3.50
2018-02-13T21:29:51.561Z,-3.40
2018-02-13T21:32:19.204Z,-3.60
2018-02-13T21:34:46.815Z,-3.60
2018-02-13T21:37:14.454Z,-3.40
2018-02-13T21:39:42.098Z,-3.40
2018-02-13T21:42:09.722Z,-3.60
2018-02-13T21:44:38.052Z,-3.40
2018-02-13T21:47:05.678Z,-3.40
2018-02-13T21:49:34.047Z,-3.40
2018-02-13T21:52:02.415Z,-3.60
2018-02-13T21:54:30.806Z,-3.70
2018-02-13T21:56:59.143Z,-3.90
2018-02-13T21:59:26.782Z,-3.90
2018-02-13T22:01:54.420Z,-4.20
2018-02-13T22:04:22.031Z,-4.30
2018-02-13T22:06:49.651Z,-4.40
2018-02-13T22:09:17.280Z,-4.50
2018-02-13T22:11:45.644Z,-4.60
2018-02-13T22:14:13.283Z,-4.60
2018-02-13T22:16:40.883Z,-4.80
2018-02-13T22:19:09.231Z,-4.80
2018-02-13T22:21:36.847Z,-4.90
2018-02-13T22:24:04.416Z,-4.70
2018-02-13T22:26:32.006Z,-4.80
2018-02-13T22:28:59.598Z,-4.50
2018-02-13T22:31:27.972Z,-4.80
2018-02-13T22:33:56.305Z,-4.90
2018-02-13T22:36:23.911Z,-5.00
2018-02-13T22:38:52.238Z,-5.10
2018-02-13T22:41:20.647Z,-5.30
2018-02-13T22:43:48.235Z,-5.30
2018-02-13T22:46:16.616Z,-5.40
2018-02-13T22:48:44.964Z,-5.40
2018-02-13T22:51:12.586Z,-5.40
2018-02-13T22:53:40.183Z,-5.40
2018-02-13T22:56:07.802Z,-5.10
2018-02-13T22:58:35.391Z,-4.90
2018-02-13T23:01:03.036Z,-4.80
2018-02-13T23:03:30.605Z,-4.90
2018-02-13T23:05:58.215Z,-5.00
2018-02-13T23:08:26.579Z,-4.90
2018-02-13T23:11:15.687Z,-5.00
2018-02-13T23:13:43.272Z,-5.10
2018-02-13T23:16:10.879Z,-5.10
2018-02-13T23:18:39.216Z,-5.10
2018-02-13T23:21:06.822Z,-5.10
2018-02-13T23:23:34.885Z,-5.30
2018-02-13T23:26:03.211Z,-5.50
2018-02-13T23:28:30.817Z,-5.60
2018-02-13T23:30:59.166Z,-5.60
2018-02-13T23:33:26.776Z,-5.70
2018-02-13T23:35:54.351Z,-5.80
2018-02-13T23:38:21.956Z,-5.80
2018-02-13T23:40:49.527Z,-5.80
2018-02-13T23:43:17.870Z,-5.90
2018-02-13T23:45:45.485Z,-6.00
2018-02-13T23:48:13.828Z,-6.00
2018-02-13T23:50:41.445Z,-6.10
2018-02-13T23:53:09.072Z,-6.10
2018-02-13T23:55:37.451Z,-6.10
2018-02-13T23:58:05.809Z,-6.20
